Dai2kousei — JD2542 — position and weather

sailwx.info

Track history (hours):
 
Tides and Currents Weather Stations Pressure Air Temp Water Temp Dewpoint Dewpoint Depression Visibility Wind Speed Wind Dir Waves Ship Positions

Dai2kousei

Last reported at 2014-Nov-19 06:32 UTC. Time now 2014-Nov-23 03:25 UTC.
Position N 34°04' E 135°00'.

Length 77 m; draft 4.5 m.

MMSI: 431000467.

Date/timePositionNaut miles runAvg speedWind from/ knotsBaromVisibWave heightAir tempDewpointWater temp
2014-Nov-19 06:32N 34°04' E 135°00'1311.6
2014-Nov-19 05:22N 34°17' E 134°59'1011.7
2014-Nov-19 04:30N 34°27' E 135°01'17 2.7
2014-Nov-18 22:19N 34°41' E 134°49'1 0.3
2014-Nov-18 20:16N 34°40' E 134°49'811.9
2014-Nov-18 19:33N 34°38' E 134°58'1010.4
2014-Nov-18 18:33N 34°28' E 135°05'1312.2
2014-Nov-18 17:31N 34°16' E 135°03'5 4.7
2014-Nov-18 16:33N 34°14' E 135°08'0 0.0
2014-Nov-18 15:33N 34°14' E 135°08'0 0.0
2014-Nov-18 14:34N 34°14' E 135°08'0 0.0
2014-Nov-18 13:33N 34°14' E 135°08'0 0.0
2014-Nov-18 12:33N 34°14' E 135°08'0 0.0
2014-Nov-18 11:33N 34°14' E 135°08'0 0.0
2014-Nov-18 10:33N 34°14' E 135°08'1 1.2
2014-Nov-18 09:33N 34°14' E 135°07'0 0.0
2014-Nov-18 08:33N 34°14' E 135°07'0 0.0
2014-Nov-18 07:33N 34°14' E 135°07'0 0.0
2014-Nov-18 06:33N 34°14' E 135°07'0 0.1
2014-Nov-18 05:33N 34°14' E 135°07'5 5.0
2014-Nov-18 04:33N 34°10' E 135°09'1 1.3
2014-Nov-18 03:33N 34°09' E 135°08'  
2014-Nov-09 18:31N 34°10' E 134°55'1313.5
2014-Nov-09 17:33N 34°22' E 135°01'1313.2
2014-Nov-09 16:33N 34°31' E 135°13'1111.3
2014-Nov-09 15:33N 34°36' E 135°25'2 1.8
2014-Nov-09 14:33N 34°35' E 135°27'0 0.0
2014-Nov-09 12:22N 34°35' E 135°27'0 0.0
2014-Nov-09 11:30N 34°35' E 135°27'0 0.0
2014-Nov-09 10:33N 34°35' E 135°27'0 0.0
2014-Nov-09 09:30N 34°35' E 135°27'0 0.0
2014-Nov-09 08:31N 34°35' E 135°27'0 0.0
2014-Nov-09 07:19N 34°35' E 135°27'  
Track history (hours):
 
Tides and Currents Weather Stations Pressure Air Temp Water Temp Dewpoint Dewpoint Depression Visibility Wind Speed Wind Dir Waves Ship Positions

Dai2kousei

Last reported at 2014-Nov-19 06:32 UTC. Time now 2014-Nov-23 03:25 UTC.
Position N 34°04' E 135°00'.

Length 77 m; draft 4.5 m.

MMSI: 431000467.

Date/timePositionNaut miles runAvg speedWind from/ knotsBaromVisibWave heightAir tempDewpointWater temp
2014-Nov-19 06:32N 34°04' E 135°00'1311.6
2014-Nov-19 05:22N 34°17' E 134°59'1011.7
2014-Nov-19 04:30N 34°27' E 135°01'17 2.7
2014-Nov-18 22:19N 34°41' E 134°49'1 0.3
2014-Nov-18 20:16N 34°40' E 134°49'811.9
2014-Nov-18 19:33N 34°38' E 134°58'1010.4
2014-Nov-18 18:33N 34°28' E 135°05'1312.2
2014-Nov-18 17:31N 34°16' E 135°03'5 4.7
2014-Nov-18 16:33N 34°14' E 135°08'0 0.0
2014-Nov-18 15:33N 34°14' E 135°08'0 0.0
2014-Nov-18 14:34N 34°14' E 135°08'0 0.0
2014-Nov-18 13:33N 34°14' E 135°08'0 0.0
2014-Nov-18 12:33N 34°14' E 135°08'0 0.0
2014-Nov-18 11:33N 34°14' E 135°08'0 0.0
2014-Nov-18 10:33N 34°14' E 135°08'1 1.2
2014-Nov-18 09:33N 34°14' E 135°07'0 0.0
2014-Nov-18 08:33N 34°14' E 135°07'0 0.0
2014-Nov-18 07:33N 34°14' E 135°07'0 0.0
2014-Nov-18 06:33N 34°14' E 135°07'0 0.1
2014-Nov-18 05:33N 34°14' E 135°07'5 5.0
2014-Nov-18 04:33N 34°10' E 135°09'1 1.3
2014-Nov-18 03:33N 34°09' E 135°08'  
2014-Nov-09 18:31N 34°10' E 134°55'1313.5
2014-Nov-09 17:33N 34°22' E 135°01'1313.2
2014-Nov-09 16:33N 34°31' E 135°13'1111.3
2014-Nov-09 15:33N 34°36' E 135°25'2 1.8
2014-Nov-09 14:33N 34°35' E 135°27'0 0.0
2014-Nov-09 12:22N 34°35' E 135°27'0 0.0
2014-Nov-09 11:30N 34°35' E 135°27'0 0.0
2014-Nov-09 10:33N 34°35' E 135°27'0 0.0
2014-Nov-09 09:30N 34°35' E 135°27'0 0.0
2014-Nov-09 08:31N 34°35' E 135°27'0 0.0
2014-Nov-09 07:19N 34°35' E 135°27'  

Dump ship's entire track history